KCGI/CGI METAR and TAF weather

Enter ICAO airport designator
Station Type Date Time Source
KCGI METAR 2021/02/27 03:03 UTC NOAA

KCGI 270303Z AUTO 00000KT 3/4SM R10/4500V6000FT -RA BR VV004 06/06 A2990 RMK AO2 P0000 T00610056


Station Type Date Time Source
KCGI Decoded METAR 2021/02/27 03:03 UTC NOAA

CAPE GIRARDEAU REGIONAL, MO, United States (KCGI) 37-14N 089-35W 102M
Feb 26, 2021 - 10:03 PM EST / 2021.02.27 0303 UTC
Wind: Calm (direction variable):0
Visibility: 3/4 mile(s):0
Sky conditions: obscured
Weather: light rain; mist
Precipitation last hour: A trace
Temperature: 43.0 F (6.1 C)
Dew Point: 42.1 F (5.6 C)
Relative Humidity: 96%
Pressure (altimeter): 29.9 in. Hg (1012 hPa)
ob: KCGI 270303Z AUTO 00000KT 3/4SM R10/4500V6000FT -RA BR VV004 06/06 A2990 RMK AO2 P0000 T00610056
cycle: 3

Station Type Date Time Source
KCGI TAF 2021/02/27 01:06 UTC NOAA

TAF
AMD KCGI 270103Z 2701/2724 13003KT 1 1/2SM BR OVC004
TEMPO 2701/2704 3/4SM -DZ BR OVC002
FM270600 25005KT 5SM BR BKN007
FM271200 VRB03KT 2SM BR OVC004
FM271800 16006KT P6SM BKN015

Example: see airport list